Time;durP1;ratioP1;P1;durP2;ratioP2;P2;SDS_P1;SDS_P2;PMS_P1;PMS_P2;Temp;Humidity;BMP_temperature;BMP_pressure;BME280_temperature;BME280_humidity;BME280_pressure;Samples;Min_cycle;Max_cycle;Signal;HPM_P1;HPM_P2
2021/11/22 00:02:00;;;;;;;46.38;22.20;;;;;;;7.13;71.70;99487.41;5009158;28;20478;-37
2021/11/22 00:04:26;;;;;;;35.63;20.27;;;;;;;6.60;72.61;99516.66;5007611;28;20018;-38
2021/11/22 00:06:51;;;;;;;34.97;19.50;;;;;;;6.30;74.76;99515.84;5008690;28;20022;-38
2021/11/22 00:09:17;;;;;;;36.65;19.55;;;;;;;6.26;76.14;99529.44;5009136;28;20014;-38
2021/11/22 00:11:42;;;;;;;35.13;19.13;;;;;;;6.61;74.37;99523.63;5008696;28;20032;-38
2021/11/22 00:14:08;;;;;;;31.58;17.83;;;;;;;6.73;75.08;99526.59;5008906;28;20021;-38
2021/11/22 00:16:33;;;;;;;33.00;19.30;;;;;;;7.15;73.21;99523.25;5008708;28;20022;-38
2021/11/22 00:18:59;;;;;;;30.60;18.52;;;;;;;7.54;70.51;99523.84;5011876;28;20024;-38
2021/11/22 00:21:24;;;;;;;33.63;18.13;;;;;;;7.36;71.35;99521.66;5012124;28;20409;-38
2021/11/22 00:23:50;;;;;;;34.05;18.55;;;;;;;7.13;71.57;99529.75;5012371;28;20021;-39
2021/11/22 00:26:16;;;;;;;27.77;17.40;;;;;;;7.18;71.63;99525.53;5012463;28;20037;-40
2021/11/22 00:28:41;;;;;;;28.50;16.88;;;;;;;7.10;71.19;99530.94;5012493;28;20029;-39
2021/11/22 00:31:07;;;;;;;28.98;17.85;;;;;;;6.75;72.16;99524.59;5011618;28;20037;-39
2021/11/22 00:33:32;;;;;;;30.85;17.50;;;;;;;6.72;73.97;99525.81;5012277;28;20022;-39
2021/11/22 00:35:57;;;;;;;30.08;18.40;;;;;;;7.48;70.85;99525.41;5012204;28;20030;-39
2021/11/22 00:38:23;;;;;;;30.55;17.30;;;;;;;7.51;69.74;99522.41;5012333;28;20026;-40
2021/11/22 00:40:48;;;;;;;30.70;17.63;;;;;;;7.13;70.81;99511.22;5012313;28;20080;-40
2021/11/22 00:43:14;;;;;;;31.45;17.23;;;;;;;7.25;70.96;99509.72;5012292;28;20374;-39
2021/11/22 00:45:39;;;;;;;29.33;17.83;;;;;;;7.19;70.77;99519.22;5011837;28;20037;-39
2021/11/22 00:48:06;;;;;;;33.47;18.50;;;;;;;7.05;72.13;99515.59;5011866;28;20458;-39
2021/11/22 00:50:31;;;;;;;34.38;19.08;;;;;;;7.55;68.99;99507.78;5011920;28;20039;-40
2021/11/22 00:52:57;;;;;;;31.15;17.30;;;;;;;7.23;70.93;99501.13;5011605;28;20097;-38
2021/11/22 00:55:22;;;;;;;33.00;18.58;;;;;;;7.04;71.45;99505.19;5009665;28;20120;-39
2021/11/22 00:57:48;;;;;;;27.60;16.55;;;;;;;6.98;71.98;99509.41;5011165;28;20065;-38
2021/11/22 01:00:15;;;;;;;32.85;17.23;;;;;;;6.78;71.37;99513.66;5010166;28;20526;-38
2021/11/22 01:02:40;;;;;;;33.35;18.23;;;;;;;6.37;72.51;99512.28;5011515;28;20021;-39
2021/11/22 01:05:07;;;;;;;38.35;18.17;;;;;;;6.36;72.35;99510.66;5011049;28;20025;-41
2021/11/22 01:07:32;;;;;;;31.70;18.13;;;;;;;6.52;72.24;99514.13;5009715;28;20485;-39
2021/11/22 01:09:58;;;;;;;30.77;17.88;;;;;;;6.32;72.05;99514.69;5011011;28;20025;-38
2021/11/22 01:12:27;;;;;;;35.70;18.48;;;;;;;6.18;73.11;99516.28;5011167;28;20177;-40
2021/11/22 01:14:54;;;;;;;30.73;18.58;;;;;;;5.94;73.07;99506.75;5011220;28;20069;-41
2021/11/22 01:17:20;;;;;;;35.25;19.65;;;;;;;6.05;74.00;99500.22;5010783;28;20037;-40
2021/11/22 01:19:45;;;;;;;36.65;20.08;;;;;;;5.76;74.82;99503.59;5010578;28;20026;-39
2021/11/22 01:22:11;;;;;;;39.80;21.30;;;;;;;5.76;75.18;99498.31;5011495;28;20021;-39
2021/11/22 01:24:36;;;;;;;37.55;20.33;;;;;;;6.34;74.62;99498.63;5011321;28;20037;-42
2021/11/22 01:27:02;;;;;;;34.53;19.23;;;;;;;6.50;73.12;99502.91;5011104;28;20366;-39
2021/11/22 01:29:27;;;;;;;33.55;18.98;;;;;;;6.65;71.50;99507.19;5010370;28;20080;-37
2021/11/22 01:31:53;;;;;;;32.20;18.55;;;;;;;6.56;72.36;99504.81;5011076;28;20021;-38
2021/11/22 01:34:18;;;;;;;35.33;20.10;;;;;;;6.13;73.20;99476.38;5011167;28;20014;-38
2021/11/22 01:36:44;;;;;;;36.17;19.73;;;;;;;6.36;73.13;99507.19;5010850;28;20022;-39
2021/11/22 01:39:09;;;;;;;32.67;19.10;;;;;;;6.19;73.33;99509.19;5009069;28;20026;-37
2021/11/22 01:41:34;;;;;;;32.72;19.10;;;;;;;6.38;73.52;99502.56;5008341;28;20022;-37
2021/11/22 01:44:00;;;;;;;33.20;18.75;;;;;;;6.38;73.17;99515.78;5010681;28;20505;-37
2021/11/22 01:46:27;;;;;;;32.25;18.40;;;;;;;6.21;73.93;99508.00;5010483;28;20029;-37
2021/11/22 01:48:55;;;;;;;33.13;18.02;;;;;;;6.01;74.25;99505.03;5010838;28;20121;-37
2021/11/22 01:51:20;;;;;;;34.95;19.10;;;;;;;6.01;74.96;99497.13;5010620;28;20026;-37
2021/11/22 01:53:46;;;;;;;34.83;18.73;;;;;;;6.06;74.44;99493.97;5010458;28;20021;-38
2021/11/22 01:56:11;;;;;;;33.42;18.80;;;;;;;5.90;73.05;99491.44;5010195;28;20556;-38
2021/11/22 01:58:37;;;;;;;32.58;18.63;;;;;;;5.77;75.43;99487.59;4992580;28;20042;-38
2021/11/22 02:01:02;;;;;;;32.40;18.02;;;;;;;5.62;75.18;99494.66;5010420;28;20040;-37
2021/11/22 02:03:28;;;;;;;32.55;18.52;;;;;;;5.34;77.74;99489.91;5010647;28;20374;-38
2021/11/22 02:05:54;;;;;;;37.33;19.38;;;;;;;5.41;76.92;99474.19;5010364;28;20036;-38
2021/11/22 02:08:20;;;;;;;34.13;19.40;;;;;;;5.48;77.06;99485.66;5010429;28;20026;-37
2021/11/22 02:10:46;;;;;;;37.17;18.75;;;;;;;5.65;76.74;99492.47;5010087;28;20033;-38
2021/11/22 02:13:11;;;;;;;34.13;19.00;;;;;;;5.75;75.47;99486.09;5010336;28;20113;-37
2021/11/22 02:15:37;;;;;;;33.13;16.52;;;;;;;5.90;75.92;99484.31;5009571;28;20030;-38
2021/11/22 02:18:02;;;;;;;32.58;17.75;;;;;;;6.10;75.83;99486.50;5009949;28;20117;-37
2021/11/22 02:20:30;;;;;;;30.65;18.40;;;;;;;6.89;73.56;99478.78;5009999;28;20690;-38
2021/11/22 02:22:59;;;;;;;26.80;16.45;;;;;;;6.58;72.80;99481.66;5010115;28;20120;-37
2021/11/22 02:25:25;;;;;;;29.23;16.60;;;;;;;6.07;74.68;99490.28;5009861;28;20026;-37
2021/11/22 02:27:51;;;;;;;28.08;15.38;;;;;;;5.94;74.86;99487.41;5010071;28;20493;-38
2021/11/22 02:30:19;;;;;;;23.98;15.18;;;;;;;5.99;74.83;99483.28;5009885;28;20034;-38
2021/11/22 02:32:44;;;;;;;30.70;14.70;;;;;;;5.99;74.46;99475.34;5009962;28;20462;-37
2021/11/22 02:35:13;;;;;;;24.33;14.45;;;;;;;6.14;75.06;99483.28;5009767;28;20026;-37
2021/11/22 02:37:38;;;;;;;26.35;14.63;;;;;;;6.21;75.11;99480.75;5009721;28;20124;-37
2021/11/22 02:40:04;;;;;;;27.48;14.27;;;;;;;6.25;74.32;99477.56;5009475;28;20514;-38
2021/11/22 02:42:31;;;;;;;24.65;14.90;;;;;;;6.15;74.57;99479.66;5009509;28;20022;-38
2021/11/22 02:44:57;;;;;;;27.85;15.57;;;;;;;6.00;73.89;99478.84;5009716;28;20184;-38
2021/11/22 02:47:23;;;;;;;26.75;15.18;;;;;;;5.73;75.49;99483.66;5009487;28;20383;-38
2021/11/22 02:49:48;;;;;;;25.08;14.73;;;;;;;5.82;76.15;99487.84;5009562;28;20049;-37
2021/11/22 02:52:14;;;;;;;26.33;15.10;;;;;;;5.54;75.38;99486.78;5009544;28;20044;-38
2021/11/22 02:54:40;;;;;;;26.10;15.35;;;;;;;5.43;76.85;99494.13;5009233;28;20116;-38
2021/11/22 02:57:06;;;;;;;25.52;14.73;;;;;;;5.70;76.08;99496.41;5009610;28;20037;-38
2021/11/22 02:59:31;;;;;;;23.63;14.13;;;;;;;5.93;75.76;99494.53;5009346;28;20096;-37
2021/11/22 03:01:57;;;;;;;24.85;14.13;;;;;;;5.72;75.97;99497.84;5009778;28;20065;-38
2021/11/22 03:04:35;;;;;;;25.88;14.40;;;;;;;5.51;76.02;99498.53;5009489;28;20036;-38
2021/11/22 03:07:01;;;;;;;26.08;14.57;;;;;;;5.61;75.89;99500.91;5009440;28;20040;-38
2021/11/22 03:09:27;;;;;;;26.10;14.60;;;;;;;5.50;75.56;99499.50;5009276;28;20109;-38
2021/11/22 03:11:53;;;;;;;22.95;14.30;;;;;;;5.20;77.16;99512.59;5009258;28;20445;-37
2021/11/22 03:14:19;;;;;;;26.95;14.50;;;;;;;5.46;77.36;99512.25;5009242;28;20434;-37
2021/11/22 03:16:45;;;;;;;23.58;14.13;;;;;;;5.36;77.56;99509.00;5007924;28;20026;-38
2021/11/22 03:19:10;;;;;;;23.10;14.10;;;;;;;5.46;76.72;99508.78;5009034;28;20133;-37
2021/11/22 03:21:36;;;;;;;26.38;15.07;;;;;;;5.58;77.59;99515.28;5009219;28;20041;-38
2021/11/22 03:24:02;;;;;;;29.25;16.65;;;;;;;6.28;74.63;99518.66;5009949;28;20458;-38
2021/11/22 03:26:27;;;;;;;24.35;14.60;;;;;;;5.84;74.96;99514.91;5009825;28;20034;-38
2021/11/22 03:28:53;;;;;;;27.63;14.55;;;;;;;5.33;75.52;99512.00;5010068;28;20390;-37
2021/11/22 03:31:18;;;;;;;22.65;13.95;;;;;;;5.67;75.51;99518.69;5009840;28;20029;-38
2021/11/22 03:33:46;;;;;;;25.20;14.45;;;;;;;5.47;75.06;99519.16;5009711;28;20030;-38
2021/11/22 03:36:12;;;;;;;26.20;15.07;;;;;;;4.82;75.97;99523.00;5009804;28;20029;-38
2021/11/22 03:38:38;;;;;;;28.45;15.43;;;;;;;5.33;75.77;99519.94;5009349;28;20488;-38
2021/11/22 03:41:10;;;;;;;26.40;15.32;;;;;;;5.27;75.99;99510.06;5009835;28;20402;-38
2021/11/22 03:43:45;;;;;;;28.60;15.77;;;;;;;4.89;75.21;99512.56;5009747;28;20103;-38
2021/11/22 03:46:10;;;;;;;31.08;15.65;;;;;;;4.59;77.68;99515.00;5009375;28;20105;-38
2021/11/22 03:48:37;;;;;;;25.50;14.80;;;;;;;4.57;77.73;99508.25;5008212;28;20041;-38
2021/11/22 03:51:03;;;;;;;27.65;15.35;;;;;;;4.57;78.56;99516.16;5008088;28;20084;-38
2021/11/22 03:53:28;;;;;;;26.58;14.68;;;;;;;4.67;78.10;99504.44;5011031;28;20030;-38
2021/11/22 03:55:54;;;;;;;25.63;15.15;;;;;;;4.60;78.54;99506.09;5013407;28;20090;-38
2021/11/22 03:58:19;;;;;;;29.90;15.57;;;;;;;4.85;78.18;99506.00;5012946;28;20022;-38
2021/11/22 04:00:45;;;;;;;29.80;15.05;;;;;;;4.85;76.09;99512.09;5013070;28;20026;-38
2021/11/22 04:03:10;;;;;;;27.00;14.68;;;;;;;4.70;77.71;99511.16;5013177;28;20346;-38
2021/11/22 04:05:35;;;;;;;26.23;14.75;;;;;;;4.81;77.79;99507.34;5013357;28;20096;-38
2021/11/22 04:08:01;;;;;;;27.90;14.77;;;;;;;4.82;77.34;99507.16;5013075;28;20081;-38
2021/11/22 04:10:26;;;;;;;26.15;15.27;;;;;;;4.72;76.47;99516.28;5013731;28;20429;-38
2021/11/22 04:12:52;;;;;;;24.90;14.98;;;;;;;4.25;78.88;99516.09;5012936;28;20032;-38
2021/11/22 04:15:17;;;;;;;27.10;14.98;;;;;;;4.44;78.63;99514.06;5012549;28;20029;-38
2021/11/22 04:17:43;;;;;;;27.98;14.63;;;;;;;4.39;78.16;99509.28;5012715;28;20395;-38
2021/11/22 04:20:08;;;;;;;30.02;15.27;;;;;;;4.23;79.53;99512.81;5012406;28;20032;-38
2021/11/22 04:22:34;;;;;;;33.20;17.35;;;;;;;4.15;78.98;99510.19;5012551;28;20091;-38
2021/11/22 04:25:00;;;;;;;31.15;16.50;;;;;;;4.15;79.15;99517.25;5012440;28;20025;-38
2021/11/22 04:27:25;;;;;;;30.42;15.88;;;;;;;4.32;79.15;99518.84;5012554;28;20037;-37
2021/11/22 04:29:51;;;;;;;26.63;14.88;;;;;;;4.33;79.39;99517.06;5012349;28;20918;-37
2021/11/22 04:32:17;;;;;;;32.47;15.25;;;;;;;4.25;79.85;99505.56;5012478;28;20128;-37
2021/11/22 04:34:42;;;;;;;29.92;15.30;;;;;;;4.11;79.80;99519.41;5012410;28;20111;-37
2021/11/22 04:37:08;;;;;;;31.10;15.07;;;;;;;4.14;79.85;99523.53;5011981;28;20099;-37
2021/11/22 04:39:34;;;;;;;29.88;15.02;;;;;;;4.08;80.01;99523.19;5011687;28;20033;-37
2021/11/22 04:41:59;;;;;;;27.27;15.40;;;;;;;3.93;80.24;99514.31;5012723;28;20112;-37
2021/11/22 04:44:25;;;;;;;30.55;15.13;;;;;;;3.90;80.94;99517.28;5012493;28;20026;-50
2021/11/22 04:46:50;;;;;;;27.48;15.55;;;;;;;3.66;79.29;99515.50;5012256;28;20030;-51
2021/11/22 04:49:15;;;;;;;29.63;16.75;;;;;;;3.70;78.60;99522.88;5011734;28;20080;-49
2021/11/22 04:51:41;;;;;;;34.72;17.83;;;;;;;3.67;80.41;99527.66;5011426;28;20060;-48
2021/11/22 04:54:06;;;;;;;32.65;17.73;;;;;;;3.70;78.85;99532.59;5012349;28;20036;-49
2021/11/22 04:56:32;;;;;;;34.80;18.40;;;;;;;3.74;78.64;99541.81;5012053;28;20510;-52
2021/11/22 04:58:57;;;;;;;30.30;17.52;;;;;;;3.74;79.08;99541.00;5012011;28;20378;-50
2021/11/22 05:01:23;;;;;;;37.25;17.48;;;;;;;3.58;78.74;99539.16;5011691;28;20426;-48
2021/11/22 05:03:50;;;;;;;31.65;16.85;;;;;;;3.62;79.14;99543.13;5010619;28;20030;-49
2021/11/22 05:06:16;;;;;;;35.92;18.40;;;;;;;3.36;78.14;99535.38;5011466;28;20064;-52
2021/11/22 05:08:41;;;;;;;35.17;18.42;;;;;;;3.80;79.33;99550.84;5011994;28;20053;-51
2021/11/22 05:11:07;;;;;;;37.10;19.90;;;;;;;3.44;78.16;99544.06;5010562;28;20026;-51
2021/11/22 05:13:32;;;;;;;34.60;18.23;;;;;;;3.24;78.60;99548.81;5010689;28;20033;-49
2021/11/22 05:15:58;;;;;;;32.50;18.65;;;;;;;3.02;79.68;99560.72;5010327;28;20145;-51
2021/11/22 05:18:23;;;;;;;37.67;19.58;;;;;;;2.93;79.96;99559.06;5009942;28;20474;-52
2021/11/22 05:20:49;;;;;;;37.05;18.40;;;;;;;3.04;80.46;99568.47;5010267;28;20030;-49
2021/11/22 05:23:14;;;;;;;34.65;19.67;;;;;;;3.08;81.53;99561.91;5010101;28;20426;-52
2021/11/22 05:25:40;;;;;;;37.55;19.77;;;;;;;3.12;81.01;99555.34;5010042;28;20037;-49
2021/11/22 05:28:06;;;;;;;39.00;19.75;;;;;;;3.24;81.43;99563.78;5010703;28;20108;-48
2021/11/22 05:30:31;;;;;;;36.30;19.13;;;;;;;3.28;80.76;99557.22;5010733;28;20406;-51
2021/11/22 05:32:58;;;;;;;37.50;19.55;;;;;;;3.18;80.56;99572.28;5010633;28;20033;-50
2021/11/22 05:35:24;;;;;;;43.95;19.17;;;;;;;3.29;81.31;99572.84;5009967;28;20441;-50
2021/11/22 05:37:49;;;;;;;38.30;18.67;;;;;;;3.50;80.48;99580.28;5001189;28;20114;-53
2021/11/22 05:40:15;;;;;;;41.50;20.52;;;;;;;3.67;79.54;99582.91;4990371;28;20098;-51
2021/11/22 05:42:40;;;;;;;40.38;22.80;;;;;;;4.74;88.20;99585.47;5008523;28;20064;-51
2021/11/22 05:45:06;;;;;;;35.42;19.98;;;;;;;6.19;78.95;99591.13;5010917;28;20034;-51
2021/11/22 05:47:32;;;;;;;40.85;20.67;;;;;;;6.42;70.64;99593.72;5010485;28;20072;-49
2021/11/22 05:50:04;;;;;;;39.15;19.33;;;;;;;5.89;70.81;99585.69;5010780;28;20021;-51
2021/11/22 05:52:29;;;;;;;42.42;21.05;;;;;;;5.43;73.45;99585.69;5011253;28;20057;-51
2021/11/22 05:54:56;;;;;;;42.90;21.65;;;;;;;5.96;74.27;99591.94;5010732;28;20234;-51
2021/11/22 05:57:22;;;;;;;50.17;26.90;;;;;;;6.33;71.70;99597.44;5010503;28;20041;-52
2021/11/22 05:59:47;;;;;;;41.65;22.00;;;;;;;5.83;72.08;99589.88;5008658;28;20029;-50
2021/11/22 06:02:13;;;;;;;46.92;22.10;;;;;;;5.58;72.64;99596.28;5009320;28;20033;-48
2021/11/22 06:04:38;;;;;;;42.83;22.38;;;;;;;5.73;72.05;99591.94;5008878;28;20034;-50
2021/11/22 06:07:04;;;;;;;45.42;22.60;;;;;;;6.07;71.34;99595.97;5008733;28;20030;-51
2021/11/22 06:09:30;;;;;;;52.67;23.67;;;;;;;6.10;70.78;99602.75;5009124;28;20088;-53
2021/11/22 06:11:55;;;;;;;66.68;25.85;;;;;;;6.00;71.35;99574.75;5008517;28;20048;-51
2021/11/22 06:14:21;;;;;;;49.60;26.05;;;;;;;6.41;70.57;99613.19;5009455;28;20125;-56
2021/11/22 06:16:46;;;;;;;50.95;27.98;;;;;;;6.26;71.00;99608.72;5009946;28;20044;-52
2021/11/22 06:19:12;;;;;;;55.65;28.63;;;;;;;6.38;70.37;99608.28;5010157;28;20034;-52
2021/11/22 06:21:37;;;;;;;54.90;28.65;;;;;;;6.53;69.73;99617.06;5010301;28;20030;-53
2021/11/22 06:24:04;;;;;;;58.70;28.83;;;;;;;7.55;67.12;99620.84;5010419;28;20347;-50
2021/11/22 06:26:30;;;;;;;54.47;28.75;;;;;;;7.70;67.21;99629.56;5010488;28;20022;-50
2021/11/22 06:28:56;;;;;;;53.40;28.13;;;;;;;7.52;66.86;99631.78;5010094;28;20049;-50
2021/11/22 06:31:22;;;;;;;57.97;28.08;;;;;;;7.50;67.30;99625.84;5009885;28;20030;-50
2021/11/22 06:33:47;;;;;;;57.25;29.08;;;;;;;7.63;64.82;99628.66;5010203;28;20450;-53
2021/11/22 06:36:13;;;;;;;60.53;30.10;;;;;;;7.69;65.03;99625.28;5010165;28;20414;-50
2021/11/22 06:38:38;;;;;;;61.92;30.65;;;;;;;8.18;63.24;99627.16;5009969;28;20025;-50
2021/11/22 06:41:04;;;;;;;57.30;29.75;;;;;;;8.35;61.88;99619.75;5009801;28;20026;-53
2021/11/22 06:43:30;;;;;;;79.00;36.40;;;;;;;8.85;61.06;99619.72;5010202;28;20022;-49
2021/11/22 06:45:55;;;;;;;78.22;37.25;;;;;;;9.17;60.83;99626.22;5009666;28;20533;-50
2021/11/22 06:48:20;;;;;;;66.47;33.30;;;;;;;9.09;61.58;99623.75;5009642;28;20044;-49
2021/11/22 06:50:46;;;;;;;63.63;30.95;;;;;;;9.15;60.64;99606.22;5010062;28;20037;-51
2021/11/22 06:53:11;;;;;;;81.55;41.67;;;;;;;9.28;59.61;99627.50;5010164;28;20274;-49
2021/11/22 06:55:37;;;;;;;81.05;38.72;;;;;;;9.45;59.20;99632.50;5009738;28;20521;-48
2021/11/22 06:58:02;;;;;;;65.95;31.63;;;;;;;9.28;59.47;99640.78;5009773;28;20663;-48
2021/11/22 07:00:28;;;;;;;58.83;29.85;;;;;;;9.55;58.55;99643.56;5009564;28;20041;-51
2021/11/22 07:02:54;;;;;;;59.60;31.27;;;;;;;9.62;58.30;99639.09;5009893;28;20478;-49
2021/11/22 07:05:20;;;;;;;62.55;30.95;;;;;;;9.45;58.38;99643.13;5009725;28;20091;-50
2021/11/22 07:07:46;;;;;;;56.13;30.88;;;;;;;9.46;58.66;99642.06;5008466;28;20025;-48
2021/11/22 07:10:11;;;;;;;58.20;30.70;;;;;;;9.65;58.83;99645.81;5009521;28;20030;-50
2021/11/22 07:12:37;;;;;;;62.85;29.98;;;;;;;9.93;57.73;99649.16;5009415;28;20030;-52
2021/11/22 07:15:03;;;;;;;66.68;31.13;;;;;;;10.32;57.48;99652.13;5009527;28;20018;-51
2021/11/22 07:17:28;;;;;;;53.58;29.45;;;;;;;10.56;56.69;99648.84;5009947;28;20049;-39
2021/11/22 07:19:54;;;;;;;73.70;40.72;;;;;;;10.67;55.63;99647.41;5009464;28;20113;-39
2021/11/22 07:22:19;;;;;;;54.50;29.58;;;;;;;11.02;56.06;99647.13;5009637;28;20109;-49
2021/11/22 07:24:46;;;;;;;47.75;26.50;;;;;;;11.28;55.37;99648.09;5009038;28;20036;-51
2021/11/22 07:27:12;;;;;;;29.00;16.65;;;;;;;11.52;54.12;99643.91;5010437;28;20082;-48
2021/11/22 07:29:38;;;;;;;23.88;14.75;;;;;;;11.74;53.54;99655.06;5013499;28;20379;-49
2021/11/22 07:32:04;;;;;;;23.80;14.50;;;;;;;11.95;52.67;99656.63;5013649;28;20018;-39
2021/11/22 07:34:29;;;;;;;22.83;14.45;;;;;;;11.95;53.14;99655.81;5012735;28;20026;-38
2021/11/22 07:36:55;;;;;;;24.90;13.88;;;;;;;12.04;52.99;99658.00;5013417;28;20036;-38
2021/11/22 07:39:21;;;;;;;20.15;13.10;;;;;;;12.13;51.74;99634.56;5013568;28;20030;-40
2021/11/22 07:41:46;;;;;;;23.00;14.45;;;;;;;12.31;51.79;99652.50;4996126;28;20034;-38
2021/11/22 07:44:12;;;;;;;21.42;14.10;;;;;;;12.43;52.03;99645.44;5011364;28;20025;-39
2021/11/22 07:46:37;;;;;;;27.98;14.52;;;;;;;12.55;51.33;99639.38;5013095;28;20034;-38
2021/11/22 07:49:03;;;;;;;26.40;16.05;;;;;;;12.50;51.16;99646.16;5012965;28;20037;-40
2021/11/22 07:51:28;;;;;;;29.42;15.77;;;;;;;12.60;51.12;99644.84;5013087;28;20058;-38
2021/11/22 07:53:54;;;;;;;27.77;15.85;;;;;;;12.57;50.60;99642.66;5011372;28;20026;-39
2021/11/22 07:56:20;;;;;;;30.10;16.05;;;;;;;12.33;51.23;99642.41;5012911;28;20050;-37
2021/11/22 07:58:45;;;;;;;23.85;15.05;;;;;;;12.40;51.77;99642.38;5012963;28;20449;-40
2021/11/22 08:01:11;;;;;;;35.25;22.38;;;;;;;12.56;51.10;99636.47;5012743;28;20099;-39
2021/11/22 08:03:36;;;;;;;34.22;18.42;;;;;;;12.91;49.96;99639.44;5013004;28;20029;-49
2021/11/22 08:06:03;;;;;;;23.92;14.57;;;;;;;12.93;50.15;99635.72;5013053;28;20030;-50
2021/11/22 08:08:30;;;;;;;24.33;15.00;;;;;;;12.97;50.15;99636.94;5012638;28;20018;-48
2021/11/22 08:13:30;;;;;;;20.40;13.90;;;;;;;12.90;50.21;99645.00;5012649;28;20032;-51
2021/11/22 08:15:59;;;;;;;27.60;14.13;;;;;;;12.67;50.98;99641.09;5012616;28;20061;-50
2021/11/22 08:18:25;;;;;;;21.13;14.57;;;;;;;12.85;50.83;99642.16;4995303;28;20049;-48
2021/11/22 08:20:50;;;;;;;26.17;14.07;;;;;;;12.87;50.04;99637.41;5011950;28;20036;-50
2021/11/22 08:23:16;;;;;;;27.95;14.27;;;;;;;13.12;49.65;99637.38;5012142;28;20248;-49
2021/11/22 08:25:43;;;;;;;22.80;14.00;;;;;;;13.14;49.52;99645.16;5011832;28;20029;-48
2021/11/22 08:28:08;;;;;;;20.40;13.55;;;;;;;13.17;49.59;99640.16;5012468;28;20022;-39
2021/11/22 08:30:35;;;;;;;23.70;15.10;;;;;;;13.45;48.96;99641.53;5012401;28;20456;-38
2021/11/22 08:33:01;;;;;;;24.02;13.77;;;;;;;13.75;47.74;99636.22;5012296;28;20029;-39
2021/11/22 08:35:31;;;;;;;26.85;14.13;;;;;;;13.75;48.06;99635.41;5011961;28;20040;-39
2021/11/22 08:37:56;;;;;;;22.63;14.45;;;;;;;14.06;47.09;99631.66;5012316;28;20462;-38
2021/11/22 08:40:22;;;;;;;23.75;15.13;;;;;;;14.16;45.94;99628.41;5011861;28;20022;-38
2021/11/22 08:42:47;;;;;;;21.80;14.35;;;;;;;14.14;46.02;99630.50;5011028;28;20018;-39
2021/11/22 08:45:13;;;;;;;21.20;13.80;;;;;;;14.24;46.31;99628.06;5011201;28;20124;-39
2021/11/22 08:47:39;;;;;;;23.17;13.63;;;;;;;14.24;45.79;99631.59;5011506;28;20116;-39
2021/11/22 08:50:05;;;;;;;22.50;13.55;;;;;;;14.19;46.70;99634.13;5011531;28;20037;-38
2021/11/22 08:52:31;;;;;;;24.30;14.98;;;;;;;14.26;46.27;99632.16;5011323;28;20014;-38
2021/11/22 08:54:56;;;;;;;23.77;15.70;;;;;;;14.71;45.90;99627.34;5011259;28;20593;-38
2021/11/22 08:57:22;;;;;;;23.52;15.60;;;;;;;14.73;44.93;99627.91;5011249;28;20076;-39
2021/11/22 08:59:48;;;;;;;22.35;14.82;;;;;;;14.37;45.55;99627.84;5011946;28;20120;-39
2021/11/22 09:02:14;;;;;;;22.67;15.43;;;;;;;14.60;45.02;99626.28;5012434;28;20026;-38
2021/11/22 09:04:40;;;;;;;31.25;16.45;;;;;;;14.70;45.04;99623.84;5011625;28;20022;-39
2021/11/22 09:07:07;;;;;;;25.48;15.23;;;;;;;14.77;44.81;99621.84;5011343;28;20033;-39
2021/11/22 09:09:32;;;;;;;26.33;15.02;;;;;;;14.91;44.20;99618.94;5011844;28;20022;-39
2021/11/22 09:11:58;;;;;;;24.80;15.85;;;;;;;14.76;45.02;99614.88;5010008;28;20040;-38
2021/11/22 09:14:24;;;;;;;24.23;15.25;;;;;;;14.73;45.10;99614.53;5009859;28;20030;-38
2021/11/22 09:16:49;;;;;;;27.45;15.85;;;;;;;14.45;45.63;99603.44;5010639;28;20100;-38
2021/11/22 09:19:15;;;;;;;27.58;16.77;;;;;;;14.43;45.91;99602.88;5011140;28;20033;-38
2021/11/22 09:21:41;;;;;;;23.27;14.98;;;;;;;14.48;46.47;99605.63;5010806;28;20477;-38
2021/11/22 09:24:06;;;;;;;25.60;15.40;;;;;;;14.49;46.75;99609.16;5010921;28;20029;-38
2021/11/22 09:26:32;;;;;;;26.98;16.27;;;;;;;14.35;45.83;99573.75;5011278;28;20516;-40
2021/11/22 09:28:58;;;;;;;25.67;16.25;;;;;;;14.51;46.08;99598.19;5011420;28;20030;-40
2021/11/22 09:31:24;;;;;;;23.45;15.00;;;;;;;14.68;45.88;99595.66;5010911;28;20030;-39
2021/11/22 09:33:52;;;;;;;28.08;15.07;;;;;;;15.01;44.77;99595.03;5011020;28;20018;-38
2021/11/22 09:36:17;;;;;;;26.30;14.65;;;;;;;14.81;45.42;99590.88;5011225;28;20062;-39
2021/11/22 09:38:43;;;;;;;24.98;14.80;;;;;;;14.63;45.18;99589.13;5010302;28;20109;-39
2021/11/22 09:41:08;;;;;;;24.80;14.50;;;;;;;14.47;46.03;99581.78;5010482;28;20092;-39
2021/11/22 09:43:34;;;;;;;31.23;15.18;;;;;;;14.70;45.73;99583.69;5011036;28;20087;-39
2021/11/22 09:46:00;;;;;;;24.10;15.15;;;;;;;14.83;46.32;99579.91;5010828;28;20013;-39
2021/11/22 09:48:26;;;;;;;24.17;15.07;;;;;;;14.81;46.36;99582.84;5010413;28;20057;-39
2021/11/22 09:50:52;;;;;;;23.65;13.55;;;;;;;14.88;46.16;99576.53;5009965;28;20030;-39
2021/11/22 09:53:21;;;;;;;23.65;13.40;;;;;;;14.83;46.47;99577.22;5010319;28;20048;-39
2021/11/22 09:55:47;;;;;;;20.73;13.60;;;;;;;14.69;46.98;99570.50;5010474;28;20124;-40
2021/11/22 09:58:12;;;;;;;21.17;13.95;;;;;;;14.72;46.65;99568.19;5010564;28;20030;-39
2021/11/22 10:00:40;;;;;;;23.98;14.45;;;;;;;14.90;46.46;99559.19;5010308;28;20516;-38
2021/11/22 10:03:13;;;;;;;23.48;14.93;;;;;;;15.20;45.82;99564.34;5010234;28;20406;-39
2021/11/22 10:05:40;;;;;;;25.80;14.70;;;;;;;14.96;46.80;99560.09;5010360;28;20402;-39
2021/11/22 10:08:12;;;;;;;21.92;14.40;;;;;;;14.79;46.78;99550.13;5008795;28;20489;-40
2021/11/22 10:10:45;;;;;;;21.67;13.45;;;;;;;14.52;47.67;99524.84;5010577;28;20049;-39
2021/11/22 10:13:32;;;;;;;17.75;13.05;;;;;;;14.43;48.18;99546.63;5009111;28;20033;-38
2021/11/22 10:16:00;;;;;;;21.80;13.60;;;;;;;14.62;48.45;99547.34;5010223;28;20026;-38
2021/11/22 10:18:30;;;;;;;19.25;12.55;;;;;;;14.75;46.83;99516.81;5010044;28;20467;-39
2021/11/22 10:21:01;;;;;;;19.13;12.70;;;;;;;15.09;47.46;99540.25;5010074;28;20088;-38
2021/11/22 10:23:28;;;;;;;20.70;13.25;;;;;;;15.07;47.00;99534.34;5009015;28;20036;-40
2021/11/22 10:25:54;;;;;;;19.48;11.77;;;;;;;14.92;47.77;99532.16;5010592;28;20032;-39
2021/11/22 10:28:28;;;;;;;18.58;12.48;;;;;;;14.75;48.34;99526.72;5010860;28;20045;-40
2021/11/22 10:31:02;;;;;;;22.92;12.27;;;;;;;15.07;47.98;99521.75;5010289;28;20021;-39
2021/11/22 10:33:33;;;;;;;18.55;11.57;;;;;;;14.93;47.71;99518.53;5009999;28;20068;-39
2021/11/22 10:36:00;;;;;;;18.02;11.35;;;;;;;14.92;47.52;99495.44;5008979;28;20064;-38
2021/11/22 10:38:29;;;;;;;16.35;11.07;;;;;;;14.80;48.54;99514.25;5009956;28;20022;-38
2021/11/22 10:41:01;;;;;;;17.00;11.77;;;;;;;15.15;47.49;99509.81;5008277;28;20018;-39
2021/11/22 10:43:38;;;;;;;15.73;10.85;;;;;;;15.16;47.99;99514.94;5008363;28;20037;-39
2021/11/22 10:46:08;;;;;;;17.05;10.52;;;;;;;15.25;48.19;99518.06;5009393;28;20030;-39
2021/11/22 10:48:33;;;;;;;15.77;10.88;;;;;;;15.14;47.23;99514.38;5009474;28;20018;-38
2021/11/22 10:51:10;;;;;;;16.55;10.10;;;;;;;15.22;47.17;99521.22;5009886;28;20021;-38
2021/11/22 10:53:43;;;;;;;16.00;10.40;;;;;;;14.84;47.74;99511.91;5009461;28;20119;-38
2021/11/22 10:56:14;;;;;;;15.77;10.85;;;;;;;15.05;47.57;99505.09;5010040;28;20060;-39
2021/11/22 10:59:02;;;;;;;16.70;11.07;;;;;;;15.16;46.92;99506.91;5009664;28;20080;-38
2021/11/22 11:01:38;;;;;;;14.05;10.48;;;;;;;15.22;47.05;99505.13;5002613;28;20045;-39
2021/11/22 11:04:13;;;;;;;16.20;11.18;;;;;;;15.08;47.51;99496.59;5009850;28;20023;-40
2021/11/22 11:06:39;;;;;;;17.13;10.77;;;;;;;15.03;48.23;99496.47;5009986;28;20022;-39
2021/11/22 11:09:05;;;;;;;18.05;10.48;;;;;;;15.34;47.04;99497.03;5010008;28;20389;-41
2021/11/22 11:11:31;;;;;;;12.93;9.93;;;;;;;15.03;48.26;99497.28;5009815;28;20029;-39
2021/11/22 11:13:56;;;;;;;17.52;10.63;;;;;;;15.16;47.65;99495.38;5009419;28;20144;-38
2021/11/22 11:16:22;;;;;;;16.85;11.18;;;;;;;15.18;48.05;99495.97;5008043;28;20387;-39
2021/11/22 11:18:57;;;;;;;16.63;11.23;;;;;;;15.31;48.37;99487.63;5009145;28;20045;-38
2021/11/22 11:21:30;;;;;;;18.67;11.82;;;;;;;15.07;48.51;99488.78;5009665;28;20092;-40